Station info - map view · info · telemetry · weather · raw · status · beacons · messages · bulletins · browse · moving · my account
Callsign, ship name or locator: Clear       
It is possible to search using wildcards (*?) after a prefix. Example: OH*
APRS station DO9JM-9 - show graphs
Map loading...
Comment: 145.625MHz Toff -060 Juergen OV P09
Mic-E message: En route
Location: 47°37.54' N 9°32.41' E - locator JN47SP40TD - show map - static map
1.8 miles North bearing 346° from Langenargen, Regierungsbezirk Tübingen, Baden-Württemberg, Germany [?]
3.3 miles Northwest bearing 302° from Kressbronn am Bodensee, Regierungsbezirk Tübingen, Baden-Württemberg, Germany
49.5 miles East bearing 68° from Zürich, Bezirk Zürich, Zurich, Switzerland
80.4 miles Southwest bearing 231° from Augsburg, Regierungsbezirk Schwaben, Bavaria, Germany
Last position: 2021-05-09 02:49:43 EDT (4h21m ago)
2021-05-09 08:49:43 CEST local time at Langenargen, Germany [?]
Altitude: 1339 ft
Course: 173°
Speed: 0 MPH
Last WX report: 2020-11-16 05:03:28 EST (174d 1h7m ago) – show weather charts
47 °F 43% 1020.0 mbar 4.0 MPH Southwest
Device: Yaesu: FTM-400DR (rig)
Last path: DO9JM-9>TW3WU4 via DB0FIG,DB0LC-1,WIDE2*,qAR,DB0TIT-10 (good)
Positions stored: 199734
Packet rate: 96 seconds between packets on average during 4726 seconds.
Other SSIDs: DO9JM DO9JM-10 DO9JM-13 DO9JM-5 DO9JM-7
Stations near current position of DO9JM-9 - show more
callsign distance last heard - EDT      callsign distance last heard - EDT
DO9JM13.1 yards 90°2021-04-27 06:41:43 DO9JM-1013.1 yards 90°2021-05-09 07:10:32
DO9JM-713.1 yards 90°2021-04-26 06:19:19 DO9JM-1313.1 yards 90°2021-05-09 07:00:09
SC500BBE1.4 miles 126°2021-04-21 08:50:53 DL3MP B2.6 miles 227°2021-04-09 18:47:42
DL3MP-B2.6 miles 227°2021-04-09 18:47:52 DO2GU-82.6 miles 166°2021-05-09 01:04:14
DO2RS2.9 miles 30°2021-05-08 05:10:17 DO2RS-12.9 miles 30°2021-05-08 05:14:50
Wx FN3.1 miles 319°2021-05-09 07:02:08 DK7TI-103.1 miles 38°2021-04-30 04:40:48
EDNY3.1 miles 334°2021-05-09 07:06:00 SC500B0F3.3 miles 258°2021-04-21 09:03:03
DJ0SJ-83.5 miles 138°2021-05-08 13:30:21 OeVSV3.8 miles 336°2021-05-09 07:04:04
HamCamp3.8 miles 340°2021-05-09 07:04:04 Tor 43.9 miles 341°2021-05-09 07:04:04
DB1AMG-94.0 miles 98°2021-05-09 06:24:16 SC500BD44.3 miles 172°2021-04-20 21:41:03
Stations which heard DO9JM-9 directly on radio –
callsign pkts first heard - EDT last heard longest (tx => rx) longest at - EDT
DB0RZ 5 2021-05-02 13:23:54 2021-05-06 10:47:35 JN47IV > JN48SD 42.2 miles 63° 2021-05-02 13:31:21
HB9ZF-1 3 2021-05-02 07:35:31 2021-05-02 12:37:06 JN47GX > JN47KG 50.9 miles 161° 2021-05-02 12:37:06
DB0FIG 321 2021-05-02 06:28:36 2021-05-09 02:49:43 JE02AI > JN47RQ 6607.2 miles 6° 2021-05-07 05:03:17
DB0RWP 15 2021-05-02 12:40:44 2021-05-02 13:07:48 JN48GA > JN48HD 10.1 miles 30° 2021-05-02 12:40:44
HB3YGT-10 8 2021-05-02 07:04:23 2021-05-03 04:37:49 JN47SP > JN47LN 27.9 miles 263° 2021-05-03 04:37:49
HB9ZF-3 16 2021-05-02 07:06:17 2021-05-07 04:24:20 JN47TQ > JN47HL 44.9 miles 254° 2021-05-07 04:24:20
HB9BB 21 2021-05-02 06:44:41 2021-05-07 04:44:53 JN47RU > JN47RD 49.5 miles 181° 2021-05-06 10:23:34
OE9XVI-6 7 2021-05-02 23:47:23 2021-05-09 01:46:59 JN47RU > JN47TF 45.3 miles 171° 2021-05-06 10:24:16
DO9JM-10 20 2021-05-09 01:29:32 2021-05-09 02:48:13 JN47TP > JN47SP 4.2 miles 261° 2021-05-09 01:38:44
HB9TG 2 2021-05-02 07:08:25 2021-05-02 07:34:49 JN47JV > JN47MM 26.2 miles 156° 2021-05-02 07:34:49
OE2XZR-10 14 2021-05-02 06:51:06 2021-05-07 05:22:00 JN47RQ > JN67NT 170.3 miles 86° 2021-05-02 06:56:40
DL7GAI-7 19 2021-05-02 07:11:13 2021-05-02 13:53:09 JN47MT > JN47OQ 11.1 miles 148° 2021-05-02 07:21:43
DB0TIT-10 6 2021-05-02 07:37:00 2021-05-02 13:26:22 JN47JU > JN47CW 25.9 miles 282° 2021-05-02 13:26:22
DB0KLI-10 29 2021-05-02 07:44:23 2021-05-02 13:14:04 JN47FW > JN48JC 16.5 miles 49° 2021-05-02 08:05:52
DM0SAT-3 17 2021-05-02 07:15:59 2021-05-06 10:50:03 JN47TQ > JN47JS 35.7 miles 277° 2021-05-06 10:50:03
DB0OAL 5 2021-05-02 07:22:47 2021-05-06 10:28:34 JN47MU > JN57JN 82.6 miles 103° 2021-05-02 07:22:47
OE9XPT-6 2 2021-05-02 14:02:29 2021-05-07 00:24:42 JN47RQ > JN47WB 46.7 miles 154° 2021-05-02 14:02:29
DB0WV-10 176 2021-05-02 06:25:37 2021-05-09 01:49:50 JN47SO > JN47QT 16.9 miles 337° 2021-05-05 05:22:31
DB0ZKN 88 2021-05-02 06:25:40 2021-05-09 02:18:13 JN47IV > JN47OP 25.8 miles 128° 2021-05-02 07:36:17
DO9JM-13 85 2021-05-03 04:27:49 2021-05-08 12:15:03 JN47TQ > JN47SP 3.6 miles 216° 2021-05-07 09:48:00
DB0LC-1 118 2021-05-02 06:38:00 2021-05-09 01:56:55 JN47OS > JN47WN 34.0 miles 115° 2021-05-02 13:42:34
HB9LU-11 1 2021-05-02 13:25:38 2021-05-02 13:25:38 JN47JV > JN46EV 69.7 miles 196° 2021-05-02 13:25:38
HB9F-10 2 2021-05-02 07:31:59 2021-05-02 13:26:43 JN47JU > JN36WN 100.6 miles 207° 2021-05-02 13:26:43
DO2GR-10 1 2021-05-02 13:16:10 2021-05-02 13:16:10 JN47HX > JN47BV 22.8 miles 258° 2021-05-02 13:16:10
DK1TEO-10 1 2021-05-02 13:43:13 2021-05-02 13:43:13 JN47OS > JN47QU 8.3 miles 59° 2021-05-02 13:43:13
DB2GM-6 10 2021-05-02 07:25:15 2021-05-02 13:34:05 JN47IV > JN47KS 10.7 miles 133° 2021-05-02 13:24:14
OE9GHV-10 74 2021-05-02 06:29:11 2021-05-07 11:28:33 JN47NT > JN47WK 41.4 miles 127° 2021-05-02 13:40:25
DO1GR-10 6 2021-05-02 12:30:43 2021-05-02 13:17:13 JN47HX > JN48EA 9.9 miles 285° 2021-05-02 13:17:13
HB9ZG-2 30 2021-05-02 07:04:02 2021-05-07 05:47:32 JN48GA > JN47GA 68.8 miles 180° 2021-05-02 12:39:33
HB9AK-12 4 2021-05-02 07:43:21 2021-05-02 13:28:08 JN47HX > JN47FR 18.8 miles 202° 2021-05-02 07:43:21
DO2BEN-10 26 2021-05-02 07:46:51 2021-05-02 13:13:01 JN47GX > JN47FW 3.2 miles 219° 2021-05-02 13:13:01
DB0ZD-10 20 2021-05-02 06:57:02 2021-05-07 05:47:02 JN47IV > JN57CM 72.9 miles 109° 2021-05-02 13:23:52
HB3YGP-2 1 2021-05-02 13:54:29 2021-05-02 13:54:29 JN47PQ > JN47QJ 18.7 miles 176° 2021-05-02 13:54:29
HB9AM-10 1 2021-05-02 13:15:49 2021-05-02 13:15:49 JN47HX > JN47CK 43.5 miles 207° 2021-05-02 13:15:49
DL1GFM 5 2021-05-02 07:45:48 2021-05-02 13:08:09 JN47GX > JN48FB 6.1 miles 322° 2021-05-02 07:45:48

Only position packets which were originated by the station are shown here. The range statistics show some extra long hops, because some digipeaters do not correctly add themselves to the digipeater path. Please check the raw packets.
About this site
This page shows real-time information collected from the Automatic Position Reporting System Internet network (APRS-IS). APRS is used by amateur (ham) radio operators to transmit real-time position information, weather data, telemetry and messages over the radio. A vehicle equipped with a GPS receiver, a VHF transmitter or HF transceiver and a small computer device called a tracker transmits it's location, speed and course in a small data packet, which is then received by a nearby iGate receiving site which forwards the packet on the Internet. Systems connected to the Internet can send information on the APRS-IS without a radio transmitter, or collect and display information transmitted anywhere in the world.
User guide · FAQ · Blog · Discussion group · Linking to aprs.fi · AIS sites · Service status · Database statistics · Advertising on aprs.fi · Technical details · API · Change log · Planned changes · Credits and thanks · Terms Of Service · iPhone/iPad APRS